sensor_id;sensor_type;location;lat;lon;timestamp;pressure;altitude;pressure_sealevel;temperature;humidity
22333;BME280;11334;36.986;-121.936;2023-10-13T00:01:56;100456.41;;;25.05;53.84
22333;BME280;11334;36.986;-121.936;2023-10-13T00:04:25;100453.91;;;25.29;53.00
22333;BME280;11334;36.986;-121.936;2023-10-13T00:06:52;100455.38;;;25.41;52.74
22333;BME280;11334;36.986;-121.936;2023-10-13T00:09:19;100455.44;;;25.46;52.80
22333;BME280;11334;36.986;-121.936;2023-10-13T00:11:52;100449.47;;;25.49;52.73
22333;BME280;11334;36.986;-121.936;2023-10-13T00:14:19;100459.22;;;25.45;53.66
22333;BME280;11334;36.986;-121.936;2023-10-13T00:16:56;100452.38;;;25.38;54.13
22333;BME280;11334;36.986;-121.936;2023-10-13T00:19:46;100458.22;;;25.25;54.15
22333;BME280;11334;36.986;-121.936;2023-10-13T00:22:18;100452.22;;;25.18;55.11
22333;BME280;11334;36.986;-121.936;2023-10-13T00:24:45;100443.16;;;25.08;55.20
22333;BME280;11334;36.986;-121.936;2023-10-13T00:27:14;100453.41;;;25.01;55.60
22333;BME280;11334;36.986;-121.936;2023-10-13T00:30:02;100442.59;;;24.85;55.94
22333;BME280;11334;36.986;-121.936;2023-10-13T00:32:44;100440.88;;;24.74;55.95
22333;BME280;11334;36.986;-121.936;2023-10-13T00:35:13;100432.81;;;24.58;56.83
22333;BME280;11334;36.986;-121.936;2023-10-13T00:37:54;100428.31;;;24.42;57.51
22333;BME280;11334;36.986;-121.936;2023-10-13T00:40:21;100425.97;;;24.29;57.91
22333;BME280;11334;36.986;-121.936;2023-10-13T00:43:00;100436.03;;;24.12;58.05
22333;BME280;11334;36.986;-121.936;2023-10-13T00:45:46;100439.34;;;23.98;58.92
22333;BME280;11334;36.986;-121.936;2023-10-13T00:48:38;100431.00;;;23.83;60.01
22333;BME280;11334;36.986;-121.936;2023-10-13T00:51:10;100432.75;;;23.73;60.39
22333;BME280;11334;36.986;-121.936;2023-10-13T00:53:55;100446.28;;;23.57;61.05
22333;BME280;11334;36.986;-121.936;2023-10-13T00:56:23;100438.25;;;23.46;61.65
22333;BME280;11334;36.986;-121.936;2023-10-13T00:58:54;100442.69;;;23.35;62.22
22333;BME280;11334;36.986;-121.936;2023-10-13T01:01:23;100462.84;;;23.28;62.22
22333;BME280;11334;36.986;-121.936;2023-10-13T01:04:00;100456.25;;;23.24;62.64
22333;BME280;11334;36.986;-121.936;2023-10-13T01:06:31;100457.47;;;23.16;62.52
22333;BME280;11334;36.986;-121.936;2023-10-13T01:08:59;100453.06;;;23.11;62.98
22333;BME280;11334;36.986;-121.936;2023-10-13T01:11:26;100463.69;;;23.01;63.67
22333;BME280;11334;36.986;-121.936;2023-10-13T01:13:55;100461.38;;;22.93;63.73
22333;BME280;11334;36.986;-121.936;2023-10-13T01:16:22;100463.28;;;22.81;64.29
22333;BME280;11334;36.986;-121.936;2023-10-13T01:18:53;100461.31;;;22.77;65.07
22333;BME280;11334;36.986;-121.936;2023-10-13T01:21:23;100480.84;;;22.67;64.76
22333;BME280;11334;36.986;-121.936;2023-10-13T01:23:53;100479.50;;;22.53;65.69
22333;BME280;11334;36.986;-121.936;2023-10-13T01:26:20;100483.03;;;22.43;66.01
22333;BME280;11334;36.986;-121.936;2023-10-13T01:28:57;100488.00;;;22.34;66.86
22333;BME280;11334;36.986;-121.936;2023-10-13T01:31:24;100489.41;;;22.25;67.10
22333;BME280;11334;36.986;-121.936;2023-10-13T01:33:53;100480.88;;;22.17;67.74
22333;BME280;11334;36.986;-121.936;2023-10-13T01:36:21;100460.19;;;22.00;68.08
22333;BME280;11334;36.986;-121.936;2023-10-13T01:38:48;100478.28;;;21.99;68.64
22333;BME280;11334;36.986;-121.936;2023-10-13T01:41:16;100472.41;;;21.91;68.88
22333;BME280;11334;36.986;-121.936;2023-10-13T01:43:42;100474.06;;;21.81;69.44
22333;BME280;11334;36.986;-121.936;2023-10-13T01:46:10;100467.81;;;21.69;69.77
22333;BME280;11334;36.986;-121.936;2023-10-13T01:48:39;100465.16;;;21.57;70.32
22333;BME280;11334;36.986;-121.936;2023-10-13T01:51:06;100465.84;;;21.53;70.49
22333;BME280;11334;36.986;-121.936;2023-10-13T01:53:40;100460.66;;;21.40;71.01
22333;BME280;11334;36.986;-121.936;2023-10-13T01:56:09;100447.00;;;21.13;72.01
22333;BME280;11334;36.986;-121.936;2023-10-13T01:58:40;100464.00;;;21.13;72.01
22333;BME280;11334;36.986;-121.936;2023-10-13T02:01:13;100460.91;;;20.98;72.55
22333;BME280;11334;36.986;-121.936;2023-10-13T02:03:53;100471.28;;;20.95;72.58
22333;BME280;11334;36.986;-121.936;2023-10-13T02:06:28;100472.34;;;20.94;72.80
22333;BME280;11334;36.986;-121.936;2023-10-13T02:09:03;100478.91;;;20.87;72.66
22333;BME280;11334;36.986;-121.936;2023-10-13T02:11:49;100476.00;;;20.70;73.58
22333;BME280;11334;36.986;-121.936;2023-10-13T02:14:20;100478.56;;;20.65;74.20
22333;BME280;11334;36.986;-121.936;2023-10-13T02:16:54;100494.50;;;20.67;74.09
22333;BME280;11334;36.986;-121.936;2023-10-13T02:19:39;100498.00;;;20.50;74.83
22333;BME280;11334;36.986;-121.936;2023-10-13T02:22:09;100498.06;;;20.43;75.05
22333;BME280;11334;36.986;-121.936;2023-10-13T02:24:36;100489.63;;;20.40;74.91
22333;BME280;11334;36.986;-121.936;2023-10-13T02:27:07;100492.19;;;20.35;75.17
22333;BME280;11334;36.986;-121.936;2023-10-13T02:29:42;100483.66;;;20.20;75.28
22333;BME280;11334;36.986;-121.936;2023-10-13T02:32:12;100496.66;;;20.23;75.23
22333;BME280;11334;36.986;-121.936;2023-10-13T02:34:47;100504.22;;;20.15;75.60
22333;BME280;11334;36.986;-121.936;2023-10-13T02:37:13;100493.09;;;20.11;74.94
22333;BME280;11334;36.986;-121.936;2023-10-13T02:39:40;100498.09;;;20.08;74.44
22333;BME280;11334;36.986;-121.936;2023-10-13T02:42:10;100495.91;;;19.98;74.08
22333;BME280;11334;36.986;-121.936;2023-10-13T02:44:49;100502.38;;;19.91;73.89
22333;BME280;11334;36.986;-121.936;2023-10-13T02:47:16;100508.00;;;19.90;73.18
22333;BME280;11334;36.986;-121.936;2023-10-13T02:49:45;100516.53;;;19.87;73.06
22333;BME280;11334;36.986;-121.936;2023-10-13T02:52:13;100516.22;;;19.77;71.97
22333;BME280;11334;36.986;-121.936;2023-10-13T02:54:40;100523.47;;;19.70;71.90
22333;BME280;11334;36.986;-121.936;2023-10-13T02:57:13;100521.88;;;19.63;71.44
22333;BME280;11334;36.986;-121.936;2023-10-13T02:59:41;100529.34;;;19.61;71.08
22333;BME280;11334;36.986;-121.936;2023-10-13T03:02:15;100525.94;;;19.47;71.62
22333;BME280;11334;36.986;-121.936;2023-10-13T03:05:04;100538.00;;;19.38;71.87
22333;BME280;11334;36.986;-121.936;2023-10-13T03:07:39;100539.03;;;19.37;72.18
22333;BME280;11334;36.986;-121.936;2023-10-13T03:10:09;100554.38;;;19.31;72.24
22333;BME280;11334;36.986;-121.936;2023-10-13T03:12:39;100543.50;;;19.19;72.24
22333;BME280;11334;36.986;-121.936;2023-10-13T03:15:07;100552.59;;;19.18;71.34
22333;BME280;11334;36.986;-121.936;2023-10-13T03:17:44;100547.69;;;19.09;72.94
22333;BME280;11334;36.986;-121.936;2023-10-13T03:20:12;100547.91;;;19.07;74.20
22333;BME280;11334;36.986;-121.936;2023-10-13T03:22:40;100541.19;;;18.86;75.95
22333;BME280;11334;36.986;-121.936;2023-10-13T03:25:07;100547.75;;;18.90;77.48
22333;BME280;11334;36.986;-121.936;2023-10-13T03:27:36;100549.84;;;18.94;79.76
22333;BME280;11334;36.986;-121.936;2023-10-13T03:30:27;100560.78;;;18.93;80.81
22333;BME280;11334;36.986;-121.936;2023-10-13T03:33:09;100567.00;;;18.93;81.91
22333;BME280;11334;36.986;-121.936;2023-10-13T03:35:47;100560.38;;;18.89;81.01
22333;BME280;11334;36.986;-121.936;2023-10-13T03:38:20;100565.56;;;18.84;81.42
22333;BME280;11334;36.986;-121.936;2023-10-13T03:40:52;100550.38;;;18.66;82.16
22333;BME280;11334;36.986;-121.936;2023-10-13T03:43:22;100572.19;;;18.82;82.50
22333;BME280;11334;36.986;-121.936;2023-10-13T03:45:50;100570.13;;;18.84;83.71
22333;BME280;11334;36.986;-121.936;2023-10-13T03:48:35;100570.31;;;18.82;83.65
22333;BME280;11334;36.986;-121.936;2023-10-13T03:51:17;100576.56;;;18.76;84.06
22333;BME280;11334;36.986;-121.936;2023-10-13T03:53:44;100567.25;;;18.72;84.23
22333;BME280;11334;36.986;-121.936;2023-10-13T03:56:23;100571.38;;;18.75;84.10
22333;BME280;11334;36.986;-121.936;2023-10-13T03:58:56;100576.19;;;18.67;83.32
22333;BME280;11334;36.986;-121.936;2023-10-13T04:01:33;100590.84;;;18.64;83.38
22333;BME280;11334;36.986;-121.936;2023-10-13T04:04:18;100574.34;;;18.61;82.33
22333;BME280;11334;36.986;-121.936;2023-10-13T04:07:03;100585.91;;;18.55;81.56
22333;BME280;11334;36.986;-121.936;2023-10-13T04:09:36;100581.41;;;18.49;80.45
22333;BME280;11334;36.986;-121.936;2023-10-13T04:12:07;100573.97;;;18.44;79.17
22333;BME280;11334;36.986;-121.936;2023-10-13T04:14:41;100582.88;;;18.38;78.65
22333;BME280;11334;36.986;-121.936;2023-10-13T04:17:26;100584.75;;;18.32;78.04
22333;BME280;11334;36.986;-121.936;2023-10-13T04:19:54;100574.44;;;18.22;77.21
22333;BME280;11334;36.986;-121.936;2023-10-13T04:22:40;100575.28;;;18.16;76.70
22333;BME280;11334;36.986;-121.936;2023-10-13T04:25:30;100560.06;;;18.04;76.06
22333;BME280;11334;36.986;-121.936;2023-10-13T04:28:09;100557.72;;;18.01;75.90
22333;BME280;11334;36.986;-121.936;2023-10-13T04:30:49;100551.16;;;17.97;75.62
22333;BME280;11334;36.986;-121.936;2023-10-13T04:36:13;100551.78;;;17.80;76.38
22333;BME280;11334;36.986;-121.936;2023-10-13T04:38:44;100550.34;;;17.71;76.43
22333;BME280;11334;36.986;-121.936;2023-10-13T04:41:34;100558.16;;;17.66;76.04
22333;BME280;11334;36.986;-121.936;2023-10-13T04:44:29;100560.25;;;17.58;76.75
22333;BME280;11334;36.986;-121.936;2023-10-13T04:46:57;100562.09;;;17.57;77.03
22333;BME280;11334;36.986;-121.936;2023-10-13T04:49:27;100578.16;;;17.51;77.21
22333;BME280;11334;36.986;-121.936;2023-10-13T04:52:09;100579.19;;;17.50;77.40
22333;BME280;11334;36.986;-121.936;2023-10-13T04:54:37;100579.81;;;17.45;77.48
22333;BME280;11334;36.986;-121.936;2023-10-13T04:57:35;100570.53;;;17.35;76.83
22333;BME280;11334;36.986;-121.936;2023-10-13T05:00:21;100567.41;;;17.32;77.40
22333;BME280;11334;36.986;-121.936;2023-10-13T05:02:48;100564.13;;;17.23;77.61
22333;BME280;11334;36.986;-121.936;2023-10-13T05:05:26;100574.81;;;17.17;77.92
22333;BME280;11334;36.986;-121.936;2023-10-13T05:08:12;100572.91;;;17.11;77.58
22333;BME280;11334;36.986;-121.936;2023-10-13T05:10:57;100578.69;;;17.08;77.88
22333;BME280;11334;36.986;-121.936;2023-10-13T05:13:41;100576.59;;;17.04;78.13
22333;BME280;11334;36.986;-121.936;2023-10-13T05:16:26;100571.41;;;16.89;78.46
22333;BME280;11334;36.986;-121.936;2023-10-13T05:19:10;100586.59;;;16.82;79.00
22333;BME280;11334;36.986;-121.936;2023-10-13T05:21:55;100581.25;;;16.82;78.88
22333;BME280;11334;36.986;-121.936;2023-10-13T05:24:39;100573.44;;;16.81;78.34
22333;BME280;11334;36.986;-121.936;2023-10-13T05:27:24;100574.03;;;16.76;78.25
22333;BME280;11334;36.986;-121.936;2023-10-13T05:30:08;100570.31;;;16.77;78.52
22333;BME280;11334;36.986;-121.936;2023-10-13T05:32:53;100567.63;;;16.71;79.13
22333;BME280;11334;36.986;-121.936;2023-10-13T05:35:38;100568.22;;;16.67;79.49
22333;BME280;11334;36.986;-121.936;2023-10-13T05:38:22;100560.38;;;16.59;78.97
22333;BME280;11334;36.986;-121.936;2023-10-13T05:41:08;100565.31;;;16.62;79.45
22333;BME280;11334;36.986;-121.936;2023-10-13T05:43:52;100569.63;;;16.63;79.94
22333;BME280;11334;36.986;-121.936;2023-10-13T05:46:37;100570.44;;;16.57;80.29
22333;BME280;11334;36.986;-121.936;2023-10-13T05:49:07;100578.25;;;16.52;80.97
22333;BME280;11334;36.986;-121.936;2023-10-13T05:51:44;100571.41;;;16.43;80.83
22333;BME280;11334;36.986;-121.936;2023-10-13T05:54:23;100570.97;;;16.40;81.19
22333;BME280;11334;36.986;-121.936;2023-10-13T05:56:51;100572.44;;;16.42;80.58
22333;BME280;11334;36.986;-121.936;2023-10-13T05:59:36;100584.16;;;16.41;80.65
22333;BME280;11334;36.986;-121.936;2023-10-13T06:02:22;100587.59;;;16.35;80.50
22333;BME280;11334;36.986;-121.936;2023-10-13T06:05:11;100585.34;;;16.32;80.40
22333;BME280;11334;36.986;-121.936;2023-10-13T06:07:57;100590.03;;;16.30;79.47
22333;BME280;11334;36.986;-121.936;2023-10-13T06:10:43;100594.97;;;16.27;79.67
22333;BME280;11334;36.986;-121.936;2023-10-13T06:13:28;100605.63;;;16.20;79.11
22333;BME280;11334;36.986;-121.936;2023-10-13T06:16:14;100584.19;;;16.14;79.17
22333;BME280;11334;36.986;-121.936;2023-10-13T06:19:00;100586.66;;;16.15;79.22
22333;BME280;11334;36.986;-121.936;2023-10-13T06:21:45;100589.69;;;16.12;79.11
22333;BME280;11334;36.986;-121.936;2023-10-13T06:24:30;100567.91;;;16.09;78.84
22333;BME280;11334;36.986;-121.936;2023-10-13T06:27:15;100578.84;;;16.14;78.74
22333;BME280;11334;36.986;-121.936;2023-10-13T06:30:01;100580.72;;;16.13;78.42
22333;BME280;11334;36.986;-121.936;2023-10-13T06:32:27;100544.84;;;15.81;78.94
22333;BME280;11334;36.986;-121.936;2023-10-13T06:34:57;100584.50;;;16.05;78.49
22333;BME280;11334;36.986;-121.936;2023-10-13T06:37:27;100584.50;;;16.05;77.71
22333;BME280;11334;36.986;-121.936;2023-10-13T06:40:00;100585.31;;;15.99;77.55
22333;BME280;11334;36.986;-121.936;2023-10-13T06:42:33;100582.00;;;15.97;77.78
22333;BME280;11334;36.986;-121.936;2023-10-13T06:45:09;100592.72;;;16.03;77.67
22333;BME280;11334;36.986;-121.936;2023-10-13T06:47:35;100591.47;;;15.99;77.83
22333;BME280;11334;36.986;-121.936;2023-10-13T06:50:12;100609.69;;;15.89;78.23
22333;BME280;11334;36.986;-121.936;2023-10-13T06:52:48;100596.50;;;15.88;78.38
22333;BME280;11334;36.986;-121.936;2023-10-13T06:55:15;100590.50;;;15.80;77.86
22333;BME280;11334;36.986;-121.936;2023-10-13T06:58:03;100601.59;;;15.83;78.35
22333;BME280;11334;36.986;-121.936;2023-10-13T07:00:33;100596.00;;;15.78;78.82
22333;BME280;11334;36.986;-121.936;2023-10-13T07:03:01;100602.00;;;15.80;78.72
22333;BME280;11334;36.986;-121.936;2023-10-13T07:05:44;100603.84;;;15.80;78.15
22333;BME280;11334;36.986;-121.936;2023-10-13T07:08:14;100600.78;;;15.82;77.67
22333;BME280;11334;36.986;-121.936;2023-10-13T07:10:55;100602.44;;;15.83;77.11
22333;BME280;11334;36.986;-121.936;2023-10-13T07:13:43;100600.78;;;15.82;77.66
22333;BME280;11334;36.986;-121.936;2023-10-13T07:16:17;100591.75;;;15.83;77.26
22333;BME280;11334;36.986;-121.936;2023-10-13T07:18:44;100600.97;;;15.81;77.32
22333;BME280;11334;36.986;-121.936;2023-10-13T07:21:19;100596.91;;;15.85;76.94
22333;BME280;11334;36.986;-121.936;2023-10-13T07:23:56;100599.56;;;15.85;77.48
22333;BME280;11334;36.986;-121.936;2023-10-13T07:26:37;100596.50;;;15.88;78.03
22333;BME280;11334;36.986;-121.936;2023-10-13T07:29:12;100597.94;;;15.84;78.33
22333;BME280;11334;36.986;-121.936;2023-10-13T07:31:38;100598.75;;;15.84;78.72
22333;BME280;11334;36.986;-121.936;2023-10-13T07:34:10;100591.31;;;15.80;78.56
22333;BME280;11334;36.986;-121.936;2023-10-13T07:36:53;100610.66;;;15.82;78.67
22333;BME280;11334;36.986;-121.936;2023-10-13T07:39:21;100611.47;;;15.82;79.09
22333;BME280;11334;36.986;-121.936;2023-10-13T07:41:52;100614.72;;;15.78;78.06
22333;BME280;11334;36.986;-121.936;2023-10-13T07:44:42;100619.41;;;15.76;78.54
22333;BME280;11334;36.986;-121.936;2023-10-13T07:47:14;100618.22;;;15.79;78.42
22333;BME280;11334;36.986;-121.936;2023-10-13T07:49:43;100616.75;;;15.76;78.37
22333;BME280;11334;36.986;-121.936;2023-10-13T07:52:10;100610.16;;;15.72;78.23
22333;BME280;11334;36.986;-121.936;2023-10-13T07:54:52;100629.50;;;15.74;78.01
22333;BME280;11334;36.986;-121.936;2023-10-13T07:57:37;100632.53;;;15.71;78.44
22333;BME280;11334;36.986;-121.936;2023-10-13T08:00:26;100636.31;;;15.77;78.70
22333;BME280;11334;36.986;-121.936;2023-10-13T08:03:04;100644.50;;;15.75;78.21
22333;BME280;11334;36.986;-121.936;2023-10-13T08:05:52;100643.84;;;15.73;77.58
22333;BME280;11334;36.986;-121.936;2023-10-13T08:08:34;100650.97;;;15.66;77.39
22333;BME280;11334;36.986;-121.936;2023-10-13T08:11:14;100641.41;;;15.72;77.71
22333;BME280;11334;36.986;-121.936;2023-10-13T08:14:00;100649.97;;;15.67;77.86
22333;BME280;11334;36.986;-121.936;2023-10-13T08:16:39;100654.03;;;15.63;77.81
22333;BME280;11334;36.986;-121.936;2023-10-13T08:19:29;100658.13;;;15.59;77.85
22333;BME280;11334;36.986;-121.936;2023-10-13T08:22:06;100649.47;;;15.57;77.87
22333;BME280;11334;36.986;-121.936;2023-10-13T08:24:41;100643.22;;;15.50;78.35
22333;BME280;11334;36.986;-121.936;2023-10-13T08:27:10;100644.50;;;15.54;78.91
22333;BME280;11334;36.986;-121.936;2023-10-13T08:29:54;100626.50;;;15.42;79.23
22333;BME280;11334;36.986;-121.936;2023-10-13T08:34:57;100638.78;;;15.57;78.76
22333;BME280;11334;36.986;-121.936;2023-10-13T08:37:33;100630.66;;;15.45;78.56
22333;BME280;11334;36.986;-121.936;2023-10-13T08:40:13;100649.59;;;15.49;78.52
22333;BME280;11334;36.986;-121.936;2023-10-13T08:43:05;100641.06;;;15.40;78.48
22333;BME280;11334;36.986;-121.936;2023-10-13T08:45:36;100656.97;;;15.48;78.63
22333;BME280;11334;36.986;-121.936;2023-10-13T08:48:03;100655.09;;;15.27;78.55
22333;BME280;11334;36.986;-121.936;2023-10-13T08:50:45;100675.19;;;15.44;78.13
22333;BME280;11334;36.986;-121.936;2023-10-13T08:53:18;100666.19;;;15.45;78.73
22333;BME280;11334;36.986;-121.936;2023-10-13T08:55:58;100669.50;;;15.47;78.94
22333;BME280;11334;36.986;-121.936;2023-10-13T08:58:35;100668.84;;;15.45;79.06
22333;BME280;11334;36.986;-121.936;2023-10-13T09:01:22;100664.91;;;15.41;78.96
22333;BME280;11334;36.986;-121.936;2023-10-13T09:04:08;100670.63;;;15.38;79.12
22333;BME280;11334;36.986;-121.936;2023-10-13T09:06:58;100666.03;;;15.32;78.81
22333;BME280;11334;36.986;-121.936;2023-10-13T09:12:12;100673.97;;;15.26;79.21
22333;BME280;11334;36.986;-121.936;2023-10-13T09:14:41;100664.22;;;15.18;79.48
22333;BME280;11334;36.986;-121.936;2023-10-13T09:17:12;100643.53;;;15.06;79.17
22333;BME280;11334;36.986;-121.936;2023-10-13T09:19:59;100671.03;;;15.21;78.58
22333;BME280;11334;36.986;-121.936;2023-10-13T09:22:45;100677.31;;;15.14;78.75
22333;BME280;11334;36.986;-121.936;2023-10-13T09:25:30;100687.69;;;15.09;79.00
22333;BME280;11334;36.986;-121.936;2023-10-13T09:28:10;100681.69;;;15.07;78.54
22333;BME280;11334;36.986;-121.936;2023-10-13T09:33:10;100660.03;;;14.81;77.12
22333;BME280;11334;36.986;-121.936;2023-10-13T09:35:46;100680.63;;;15.01;77.55
22333;BME280;11334;36.986;-121.936;2023-10-13T09:38:15;100670.19;;;15.06;77.94
22333;BME280;11334;36.986;-121.936;2023-10-13T09:40:43;100659.91;;;15.03;78.20
22333;BME280;11334;36.986;-121.936;2023-10-13T09:43:19;100660.47;;;14.99;77.88
22333;BME280;11334;36.986;-121.936;2023-10-13T09:45:48;100670.03;;;14.93;78.38
22333;BME280;11334;36.986;-121.936;2023-10-13T09:48:44;100670.81;;;14.87;78.38
22333;BME280;11334;36.986;-121.936;2023-10-13T09:51:16;100668.56;;;14.91;78.49
22333;BME280;11334;36.986;-121.936;2023-10-13T09:54:08;100674.94;;;14.90;77.51
22333;BME280;11334;36.986;-121.936;2023-10-13T09:56:50;100668.84;;;14.82;77.29
22333;BME280;11334;36.986;-121.936;2023-10-13T09:59:42;100667.47;;;14.85;78.40
22333;BME280;11334;36.986;-121.936;2023-10-13T10:02:09;100671.91;;;14.79;78.24
22333;BME280;11334;36.986;-121.936;2023-10-13T10:04:54;100671.53;;;14.82;78.42
22333;BME280;11334;36.986;-121.936;2023-10-13T10:07:41;100655.63;;;14.74;78.19
22333;BME280;11334;36.986;-121.936;2023-10-13T10:10:09;100665.75;;;14.78;78.18
22333;BME280;11334;36.986;-121.936;2023-10-13T10:12:50;100670.25;;;14.78;77.56
22333;BME280;11334;36.986;-121.936;2023-10-13T10:15:30;100674.28;;;14.74;76.99
22333;BME280;11334;36.986;-121.936;2023-10-13T10:18:03;100669.88;;;14.66;77.60
22333;BME280;11334;36.986;-121.936;2023-10-13T10:20:31;100678.44;;;14.62;78.70
22333;BME280;11334;36.986;-121.936;2023-10-13T10:23:27;100668.31;;;14.57;78.71
22333;BME280;11334;36.986;-121.936;2023-10-13T10:26:15;100642.88;;;14.41;78.92
22333;BME280;11334;36.986;-121.936;2023-10-13T10:28:46;100662.06;;;14.51;79.13
22333;BME280;11334;36.986;-121.936;2023-10-13T10:31:13;100675.22;;;14.52;79.72
22333;BME280;11334;36.986;-121.936;2023-10-13T10:33:47;100666.09;;;14.47;79.74
22333;BME280;11334;36.986;-121.936;2023-10-13T10:36:30;100683.56;;;14.49;79.64
22333;BME280;11334;36.986;-121.936;2023-10-13T10:38:57;100671.44;;;14.47;80.08
22333;BME280;11334;36.986;-121.936;2023-10-13T10:41:27;100677.34;;;14.56;79.79
22333;BME280;11334;36.986;-121.936;2023-10-13T10:44:13;100649.66;;;14.43;80.01
22333;BME280;11334;36.986;-121.936;2023-10-13T10:46:48;100661.44;;;14.49;79.24
22333;BME280;11334;36.986;-121.936;2023-10-13T10:49:23;100672.53;;;14.52;78.87
22333;BME280;11334;36.986;-121.936;2023-10-13T10:52:01;100666.09;;;14.47;79.14
22333;BME280;11334;36.986;-121.936;2023-10-13T10:54:29;100664.91;;;14.49;78.86
22333;BME280;11334;36.986;-121.936;2023-10-13T10:56:58;100663.28;;;14.48;78.98
22333;BME280;11334;36.986;-121.936;2023-10-13T10:59:38;100624.84;;;14.28;78.76
22333;BME280;11334;36.986;-121.936;2023-10-13T11:02:06;100639.63;;;14.31;79.34
22333;BME280;11334;36.986;-121.936;2023-10-13T11:04:35;100628.78;;;14.32;79.15
22333;BME280;11334;36.986;-121.936;2023-10-13T11:07:07;100653.31;;;14.42;79.15
22333;BME280;11334;36.986;-121.936;2023-10-13T11:09:35;100658.00;;;14.40;78.90
22333;BME280;11334;36.986;-121.936;2023-10-13T11:12:12;100677.97;;;14.44;78.81
22333;BME280;11334;36.986;-121.936;2023-10-13T11:15:08;100663.16;;;14.42;79.28
22333;BME280;11334;36.986;-121.936;2023-10-13T11:17:50;100662.88;;;14.37;80.01
22333;BME280;11334;36.986;-121.936;2023-10-13T11:20:23;100667.03;;;14.39;79.61
22333;BME280;11334;36.986;-121.936;2023-10-13T11:23:14;100676.94;;;14.45;79.39
22333;BME280;11334;36.986;-121.936;2023-10-13T11:25:41;100675.69;;;14.41;79.54
22333;BME280;11334;36.986;-121.936;2023-10-13T11:28:10;100676.22;;;14.37;79.81
22333;BME280;11334;36.986;-121.936;2023-10-13T11:30:44;100669.03;;;14.37;79.93
22333;BME280;11334;36.986;-121.936;2023-10-13T11:33:16;100676.75;;;14.32;80.21
22333;BME280;11334;36.986;-121.936;2023-10-13T11:35:55;100676.09;;;14.30;80.19
22333;BME280;11334;36.986;-121.936;2023-10-13T11:38:33;100676.03;;;14.24;80.47
22333;BME280;11334;36.986;-121.936;2023-10-13T11:41:14;100682.53;;;14.22;80.90
22333;BME280;11334;36.986;-121.936;2023-10-13T11:43:45;100674.19;;;14.24;80.62
22333;BME280;11334;36.986;-121.936;2023-10-13T11:46:32;100670.41;;;14.19;80.59
22333;BME280;11334;36.986;-121.936;2023-10-13T11:49:05;100673.97;;;14.12;81.70
22333;BME280;11334;36.986;-121.936;2023-10-13T11:51:52;100666.63;;;14.14;81.81
22333;BME280;11334;36.986;-121.936;2023-10-13T11:54:20;100674.72;;;14.20;82.02
22333;BME280;11334;36.986;-121.936;2023-10-13T11:56:49;100667.38;;;14.22;82.02
22333;BME280;11334;36.986;-121.936;2023-10-13T11:59:15;100672.88;;;14.21;81.67
22333;BME280;11334;36.986;-121.936;2023-10-13T12:01:50;100670.03;;;14.22;82.02
22333;BME280;11334;36.986;-121.936;2023-10-13T12:04:36;100666.63;;;14.14;82.13
22333;BME280;11334;36.986;-121.936;2023-10-13T12:07:18;100673.50;;;14.08;82.46
22333;BME280;11334;36.986;-121.936;2023-10-13T12:10:03;100668.00;;;14.10;82.48
22333;BME280;11334;36.986;-121.936;2023-10-13T12:12:32;100666.34;;;14.09;82.66
22333;BME280;11334;36.986;-121.936;2023-10-13T12:15:06;100667.81;;;14.11;82.62
22333;BME280;11334;36.986;-121.936;2023-10-13T12:17:50;100668.66;;;14.12;82.09
22333;BME280;11334;36.986;-121.936;2023-10-13T12:20:17;100675.91;;;14.18;81.77
22333;BME280;11334;36.986;-121.936;2023-10-13T12:22:59;100675.63;;;14.13;82.13
22333;BME280;11334;36.986;-121.936;2023-10-13T12:25:39;100678.28;;;14.13;82.31
22333;BME280;11334;36.986;-121.936;2023-10-13T12:28:22;100695.00;;;14.07;82.78
22333;BME280;11334;36.986;-121.936;2023-10-13T12:30:49;100669.75;;;13.95;83.25
22333;BME280;11334;36.986;-121.936;2023-10-13T12:33:19;100677.16;;;14.07;83.25
22333;BME280;11334;36.986;-121.936;2023-10-13T12:36:02;100678.06;;;14.00;83.56
22333;BME280;11334;36.986;-121.936;2023-10-13T12:38:49;100663.94;;;13.99;84.16
22333;BME280;11334;36.986;-121.936;2023-10-13T12:41:15;100651.94;;;13.95;84.00
22333;BME280;11334;36.986;-121.936;2023-10-13T12:44:00;100657.22;;;14.03;83.80
22333;BME280;11334;36.986;-121.936;2023-10-13T12:46:44;100657.59;;;14.00;83.88
22333;BME280;11334;36.986;-121.936;2023-10-13T12:49:29;100659.88;;;14.03;83.90
22333;BME280;11334;36.986;-121.936;2023-10-13T12:52:13;100664.09;;;13.98;84.30
22333;BME280;11334;36.986;-121.936;2023-10-13T12:54:46;100679.25;;;13.97;84.43
22333;BME280;11334;36.986;-121.936;2023-10-13T12:57:28;100680.59;;;13.93;84.67
22333;BME280;11334;36.986;-121.936;2023-10-13T12:59:54;100682.56;;;13.99;84.51
22333;BME280;11334;36.986;-121.936;2023-10-13T13:02:21;100685.09;;;13.93;84.30
22333;BME280;11334;36.986;-121.936;2023-10-13T13:04:53;100689.59;;;13.92;84.76
22333;BME280;11334;36.986;-121.936;2023-10-13T13:07:23;100680.94;;;13.90;84.68
22333;BME280;11334;36.986;-121.936;2023-10-13T13:09:55;100686.94;;;13.92;84.50
22333;BME280;11334;36.986;-121.936;2023-10-13T13:12:26;100675.88;;;13.81;84.88
22333;BME280;11334;36.986;-121.936;2023-10-13T13:14:54;100675.75;;;13.75;84.74
22333;BME280;11334;36.986;-121.936;2023-10-13T13:17:23;100685.88;;;13.79;85.32